createdAt,value
2023-05-12T00:00:56.600Z,99181.78
2023-05-12T00:03:24.014Z,99176.72
2023-05-12T00:05:51.077Z,99179.09
2023-05-12T00:08:17.585Z,99169.31
2023-05-12T00:10:44.383Z,99175.06
2023-05-12T00:13:11.069Z,99170.34
2023-05-12T00:15:37.817Z,99169.81
2023-05-12T00:18:04.283Z,99169.31
2023-05-12T00:20:31.546Z,99167.81
2023-05-12T00:22:57.975Z,99174.91
2023-05-12T00:25:24.522Z,99169.31
2023-05-12T00:27:51.262Z,99167.59
2023-05-12T00:30:18.028Z,99170.81
2023-05-12T00:32:44.566Z,99166.09
2023-05-12T00:35:11.007Z,99164.09
2023-05-12T00:37:38.858Z,99161.19
2023-05-12T00:40:05.826Z,99163.19
2023-05-12T00:42:34.914Z,99163.88
2023-05-12T00:45:01.669Z,99157.47
2023-05-12T00:47:29.193Z,99155.81
2023-05-12T00:49:56.065Z,99154.63
2023-05-12T00:52:24.230Z,99141.00
2023-05-12T00:54:50.794Z,99145.09
2023-05-12T00:57:18.983Z,99149.75
2023-05-12T00:59:45.762Z,99142.72
2023-05-12T01:02:12.264Z,99144.38
2023-05-12T01:04:40.049Z,99146.09
2023-05-12T01:07:24.685Z,99145.72
2023-05-12T01:09:57.339Z,99141.31
2023-05-12T01:12:24.673Z,99137.63
2023-05-12T01:14:53.411Z,99137.19
2023-05-12T01:17:22.131Z,99138.47
2023-05-12T01:19:52.029Z,99135.94
2023-05-12T01:22:18.680Z,99136.28
2023-05-12T01:24:54.850Z,99134.59
2023-05-12T01:27:25.263Z,99141.97
2023-05-12T01:29:52.650Z,99137.28
2023-05-12T01:32:19.412Z,99134.59
2023-05-12T01:34:46.585Z,99130.19
2023-05-12T01:37:13.109Z,99133.75
2023-05-12T01:39:40.048Z,99131.22
2023-05-12T01:42:07.040Z,99122.47
2023-05-12T01:44:33.734Z,99131.53
2023-05-12T01:47:04.406Z,99134.06
2023-05-12T01:49:30.810Z,99132.06
2023-05-12T01:51:57.946Z,99126.97
2023-05-12T01:54:24.345Z,99126.66
2023-05-12T01:56:50.813Z,99128.84
2023-05-12T01:59:17.379Z,99123.47
2023-05-12T02:01:44.219Z,99121.44
2023-05-12T02:04:10.711Z,99128.38
2023-05-12T02:06:37.360Z,99123.47
2023-05-12T02:09:03.804Z,99127.31
2023-05-12T02:11:30.601Z,99129.22
2023-05-12T02:13:57.579Z,99121.41
2023-05-12T02:16:24.295Z,99133.91
2023-05-12T02:18:50.786Z,99126.25
2023-05-12T02:21:17.693Z,99129.72
2023-05-12T02:23:44.138Z,99131.88
2023-05-12T02:26:10.632Z,99139.78
2023-05-12T02:28:37.332Z,99132.19
2023-05-12T02:31:03.872Z,99139.88
2023-05-12T02:33:30.430Z,99134.97
2023-05-12T02:35:56.801Z,99128.44
2023-05-12T02:38:23.515Z,99130.84
2023-05-12T02:40:49.960Z,99129.34
2023-05-12T02:43:16.858Z,99135.56
2023-05-12T02:45:43.284Z,99131.88
2023-05-12T02:48:09.779Z,99124.72
2023-05-12T02:50:36.248Z,99128.69
2023-05-12T02:53:02.971Z,99133.41
2023-05-12T02:55:30.148Z,99139.47
2023-05-12T02:57:57.127Z,99137.78
2023-05-12T03:00:23.613Z,99132.56
2023-05-12T03:02:50.335Z,99133.72
2023-05-12T03:05:17.719Z,99135.41
2023-05-12T03:07:44.695Z,99131.03
2023-05-12T03:10:11.468Z,99138.78
2023-05-12T03:12:38.243Z,99135.41
2023-05-12T03:15:04.900Z,99135.19
2023-05-12T03:17:32.480Z,99132.66
2023-05-12T03:19:58.878Z,99134.66
2023-05-12T03:22:25.516Z,99131.00
2023-05-12T03:24:52.379Z,99128.59
2023-05-12T03:27:19.742Z,99135.34
2023-05-12T03:29:46.630Z,99135.50
2023-05-12T03:32:14.063Z,99133.38
2023-05-12T03:34:40.831Z,99130.91
2023-05-12T03:37:07.412Z,99130.41
2023-05-12T03:39:35.303Z,99130.53
2023-05-12T03:42:01.691Z,99126.53
2023-05-12T03:44:28.080Z,99125.09
2023-05-12T03:46:54.537Z,99120.31
2023-05-12T03:49:21.104Z,99115.41
2023-05-12T03:51:47.586Z,99115.41
2023-05-12T03:54:13.969Z,99112.72
2023-05-12T03:56:40.807Z,99111.88
2023-05-12T03:59:07.238Z,99117.50
2023-05-12T04:01:33.770Z,99117.88
2023-05-12T04:04:00.296Z,99115.81
2023-05-12T04:06:26.712Z,99118.34
2023-05-12T04:08:53.425Z,99117.03
2023-05-12T04:11:19.905Z,99112.84
2023-05-12T04:13:46.770Z,99118.34
2023-05-12T04:16:14.114Z,99113.97
2023-05-12T04:18:40.624Z,99124.56
2023-05-12T04:21:07.273Z,99124.56
2023-05-12T04:23:34.184Z,99122.94
2023-05-12T04:26:04.057Z,99115.69
2023-05-12T04:28:30.699Z,99123.25
2023-05-12T04:30:57.108Z,99122.63
2023-05-12T04:33:23.927Z,99124.19
2023-05-12T04:35:55.826Z,99123.25
2023-05-12T04:38:22.544Z,99130.47
2023-05-12T04:40:48.918Z,99128.84
2023-05-12T04:45:45.655Z,99133.63
2023-05-12T04:48:12.071Z,99138.00
2023-05-12T04:50:38.452Z,99141.16
2023-05-12T04:53:04.939Z,99145.13
2023-05-12T04:55:31.964Z,99151.00
2023-05-12T04:57:58.738Z,99151.00
2023-05-12T05:00:25.800Z,99147.63
2023-05-12T05:02:52.809Z,99154.38
2023-05-12T05:05:20.110Z,99152.72
2023-05-12T05:07:46.698Z,99157.13
2023-05-12T05:10:13.489Z,99160.88
2023-05-12T05:12:39.914Z,99164.69
2023-05-12T05:15:07.829Z,99163.94
2023-05-12T05:17:34.394Z,99160.81
2023-05-12T05:20:00.904Z,99173.41
2023-05-12T05:22:27.332Z,99176.94
2023-05-12T05:24:53.787Z,99164.44
2023-05-12T05:27:21.103Z,99180.31
2023-05-12T05:29:47.574Z,99170.19
2023-05-12T05:32:14.415Z,99180.31
2023-05-12T05:34:41.391Z,99185.91
2023-05-12T05:37:07.847Z,99190.69
2023-05-12T05:39:34.348Z,99186.44
2023-05-12T05:42:00.761Z,99183.75
2023-05-12T05:44:27.579Z,99191.16
2023-05-12T05:46:54.324Z,99197.84
2023-05-12T05:49:21.246Z,99194.31
2023-05-12T05:51:47.710Z,99187.81
2023-05-12T05:54:14.121Z,99192.41
2023-05-12T05:56:40.564Z,99199.25
2023-05-12T05:59:07.066Z,99186.03
2023-05-12T06:01:34.034Z,99193.91
2023-05-12T06:04:00.629Z,99194.78
2023-05-12T06:06:28.418Z,99201.84
2023-05-12T06:08:56.413Z,99209.97
2023-05-12T06:11:22.966Z,99212.19
2023-05-12T06:13:50.234Z,99211.31
2023-05-12T06:16:17.059Z,99203.06
2023-05-12T06:18:43.562Z,99212.63
2023-05-12T06:21:10.419Z,99220.53
2023-05-12T06:23:36.827Z,99226.22
2023-05-12T06:26:03.252Z,99229.13
2023-05-12T06:28:29.800Z,99236.16
2023-05-12T06:30:56.487Z,99233.84
2023-05-12T06:33:23.329Z,99235.19
2023-05-12T06:35:49.815Z,99238.28
2023-05-12T06:38:16.821Z,99240.38
2023-05-12T06:40:43.244Z,99233.97
2023-05-12T06:43:10.094Z,99240.56
2023-05-12T06:45:36.608Z,99252.28
2023-05-12T06:48:06.176Z,99249.78
2023-05-12T06:50:34.778Z,99248.59
2023-05-12T06:53:01.400Z,99249.13
2023-05-12T06:55:28.076Z,99247.13
2023-05-12T06:57:56.061Z,99244.59
2023-05-12T07:00:24.369Z,99238.81
2023-05-12T07:02:51.085Z,99251.00
2023-05-12T07:05:19.213Z,99256.22
2023-05-12T07:07:45.835Z,99252.00
2023-05-12T07:10:12.386Z,99250.31
2023-05-12T07:12:39.150Z,99251.16
2023-05-12T07:15:06.840Z,99252.00
2023-05-12T07:17:33.843Z,99252.34
2023-05-12T07:20:00.370Z,99256.06
2023-05-12T07:22:27.101Z,99238.53
2023-05-12T07:24:53.516Z,99252.66
2023-05-12T07:27:19.925Z,99260.09
2023-05-12T07:29:46.561Z,99257.41
2023-05-12T07:32:13.347Z,99267.38
2023-05-12T07:34:40.905Z,99263.50
2023-05-12T07:37:07.307Z,99269.56
2023-05-12T07:39:34.410Z,99277.31
2023-05-12T07:42:01.153Z,99274.28
2023-05-12T07:44:28.225Z,99269.75
2023-05-12T07:46:54.908Z,99268.72
2023-05-12T07:49:23.166Z,99275.78
2023-05-12T07:51:49.830Z,99268.38
2023-05-12T07:54:16.849Z,99268.22
2023-05-12T07:56:43.310Z,99268.72
2023-05-12T07:59:10.797Z,99261.97
2023-05-12T08:01:37.474Z,99268.88
2023-05-12T08:04:04.085Z,99258.06
2023-05-12T08:06:31.017Z,99275.94
2023-05-12T08:08:58.353Z,99274.56
2023-05-12T08:11:26.003Z,99260.06
2023-05-12T08:13:52.947Z,99262.00
2023-05-12T08:16:20.359Z,99264.78
2023-05-12T08:18:46.791Z,99262.38
2023-05-12T08:21:13.220Z,99260.97
2023-05-12T08:23:39.637Z,99256.78
2023-05-12T08:26:06.185Z,99255.47
2023-05-12T08:28:33.050Z,99264.56
2023-05-12T08:31:01.496Z,99263.06
2023-05-12T08:33:29.593Z,99269.47
2023-05-12T08:35:56.108Z,99255.50
2023-05-12T08:38:23.023Z,99258.06
2023-05-12T08:40:57.398Z,99263.13
2023-05-12T08:43:26.139Z,99258.03
2023-05-12T08:46:02.570Z,99266.22
2023-05-12T08:48:30.184Z,99262.06
2023-05-12T08:50:57.767Z,99262.41
2023-05-12T08:53:25.986Z,99248.38
2023-05-12T08:57:08.879Z,99252.06
2023-05-12T08:58:41.953Z,99262.09
2023-05-12T09:01:11.647Z,99260.94
2023-05-12T09:03:38.892Z,99257.50
2023-05-12T09:06:06.907Z,99256.44
2023-05-12T09:08:34.997Z,99253.25
2023-05-12T09:11:02.860Z,99252.59
2023-05-12T09:13:52.434Z,99246.28
2023-05-12T09:16:24.422Z,99248.56
2023-05-12T09:18:53.389Z,99242.13
2023-05-12T09:21:21.087Z,99252.19
2023-05-12T09:24:07.471Z,99234.53
2023-05-12T09:26:51.445Z,99237.13
2023-05-12T09:29:30.762Z,99229.13
2023-05-12T09:32:02.228Z,99241.88
2023-05-12T09:34:35.717Z,99246.78
2023-05-12T09:37:05.421Z,99229.03
2023-05-12T09:39:32.127Z,99233.00
2023-05-12T09:41:59.082Z,99230.31
2023-05-12T09:44:27.014Z,99238.34
2023-05-12T09:46:53.542Z,99242.13
2023-05-12T09:49:26.540Z,99234.13
2023-05-12T09:51:55.854Z,99234.19
2023-05-12T09:54:29.303Z,99236.16
2023-05-12T09:57:04.791Z,99236.19
2023-05-12T09:59:36.571Z,99237.38
2023-05-12T10:02:06.427Z,99242.94
2023-05-12T10:04:41.978Z,99232.75
2023-05-12T10:07:12.172Z,99238.50
2023-05-12T10:09:42.217Z,99243.66
2023-05-12T10:12:10.229Z,99236.69
2023-05-12T10:14:37.466Z,99231.19
2023-05-12T10:17:06.411Z,99236.78
2023-05-12T10:19:33.077Z,99238.91
2023-05-12T10:22:00.704Z,99237.41
2023-05-12T10:24:28.780Z,99245.47
2023-05-12T10:26:56.925Z,99232.47
2023-05-12T10:29:29.506Z,99239.16
2023-05-12T10:31:57.696Z,99242.94
2023-05-12T10:34:30.509Z,99232.84
2023-05-12T10:36:58.514Z,99236.13
2023-05-12T10:39:29.891Z,99236.66
2023-05-12T10:42:10.007Z,99237.53
2023-05-12T10:44:47.701Z,99243.22
2023-05-12T10:47:17.690Z,99234.81
2023-05-12T10:49:44.688Z,99229.63
2023-05-12T10:52:13.095Z,99237.44
2023-05-12T10:54:44.948Z,99237.25
2023-05-12T10:57:18.852Z,99231.81
2023-05-12T10:59:56.493Z,99224.84
2023-05-12T11:02:27.621Z,99227.09
2023-05-12T11:05:04.626Z,99235.56
2023-05-12T11:07:34.707Z,99233.34
2023-05-12T11:10:05.956Z,99228.56
2023-05-12T11:12:37.728Z,99229.28
2023-05-12T11:15:05.860Z,99228.25
2023-05-12T11:17:33.620Z,99235.81
2023-05-12T11:20:01.349Z,99237.41
2023-05-12T11:22:28.773Z,99240.41
2023-05-12T11:24:55.622Z,99239.63
2023-05-12T11:27:24.067Z,99244.66
2023-05-12T11:29:59.495Z,99235.78
2023-05-12T11:32:26.703Z,99228.25
2023-05-12T11:34:53.880Z,99222.78
2023-05-12T11:37:21.114Z,99236.19
2023-05-12T11:39:48.051Z,99244.38
2023-05-12T11:42:16.244Z,99235.50
2023-05-12T11:44:49.298Z,99232.94
2023-05-12T11:47:19.620Z,99237.47
2023-05-12T11:49:51.656Z,99245.47
2023-05-12T11:52:19.775Z,99233.00
2023-05-12T11:55:06.347Z,99240.47
2023-05-12T11:57:35.874Z,99238.47
2023-05-12T12:00:05.331Z,99240.03
2023-05-12T12:02:32.569Z,99233.72
2023-05-12T12:05:00.172Z,99241.81
2023-05-12T12:07:35.150Z,99239.09
2023-05-12T12:10:14.921Z,99253.34
2023-05-12T12:12:42.424Z,99246.03
2023-05-12T12:15:10.364Z,99243.44
2023-05-12T12:17:37.445Z,99255.16
2023-05-12T12:20:04.139Z,99260.03
2023-05-12T12:22:34.068Z,99258.56
2023-05-12T12:25:02.138Z,99254.97
2023-05-12T12:27:28.658Z,99256.53
2023-05-12T12:29:55.097Z,99247.19
2023-05-12T12:32:21.480Z,99257.97
2023-05-12T12:34:49.545Z,99256.28
2023-05-12T12:37:16.109Z,99259.38
2023-05-12T12:39:42.827Z,99259.31
2023-05-12T12:42:09.680Z,99268.09
2023-05-12T12:44:36.472Z,99265.84
2023-05-12T12:47:03.361Z,99267.06
2023-05-12T12:49:32.233Z,99271.56
2023-05-12T12:51:58.687Z,99268.84
2023-05-12T12:54:28.549Z,99270.66
2023-05-12T12:56:55.650Z,99273.63
2023-05-12T12:59:22.690Z,99264.59
2023-05-12T13:01:49.454Z,99269.78
2023-05-12T13:04:17.051Z,99275.06
2023-05-12T13:06:43.710Z,99268.13
2023-05-12T13:09:10.704Z,99275.94
2023-05-12T13:11:37.536Z,99274.84
2023-05-12T13:14:04.541Z,99270.16
2023-05-12T13:16:31.866Z,99271.41
2023-05-12T13:18:59.081Z,99270.75
2023-05-12T13:21:25.631Z,99274.75
2023-05-12T13:23:52.201Z,99276.63
2023-05-12T13:26:18.674Z,99270.94
2023-05-12T13:28:45.666Z,99272.19
2023-05-12T13:31:12.472Z,99276.69
2023-05-12T13:33:39.118Z,99277.25
2023-05-12T13:36:06.101Z,99276.94
2023-05-12T13:38:33.768Z,99273.28
2023-05-12T13:41:00.350Z,99268.25
2023-05-12T13:43:26.796Z,99269.59
2023-05-12T13:45:53.613Z,99269.03
2023-05-12T13:48:20.682Z,99276.81
2023-05-12T13:50:47.655Z,99258.16
2023-05-12T13:53:14.428Z,99266.41
2023-05-12T13:55:41.305Z,99270.88
2023-05-12T13:58:07.703Z,99272.53
2023-05-12T14:00:34.503Z,99266.91
2023-05-12T14:03:01.678Z,99269.47
2023-05-12T14:05:28.335Z,99262.97
2023-05-12T14:07:55.223Z,99262.59
2023-05-12T14:10:21.617Z,99270.78
2023-05-12T14:12:48.527Z,99256.34
2023-05-12T14:15:28.906Z,99268.94
2023-05-12T14:18:00.137Z,99262.91
2023-05-12T14:20:26.605Z,99267.81
2023-05-12T14:22:53.407Z,99263.03
2023-05-12T14:25:20.468Z,99261.84
2023-05-12T14:27:47.149Z,99256.78
2023-05-12T14:30:14.543Z,99262.06
2023-05-12T14:32:41.064Z,99266.75
2023-05-12T14:35:09.482Z,99270.72
2023-05-12T14:37:36.324Z,99275.31
2023-05-12T14:40:03.030Z,99269.81
2023-05-12T14:42:30.327Z,99274.25
2023-05-12T14:44:57.285Z,99274.47
2023-05-12T14:47:24.112Z,99278.41
2023-05-12T14:49:50.626Z,99275.44
2023-05-12T14:52:17.089Z,99279.28
2023-05-12T14:54:43.822Z,99291.16
2023-05-12T14:57:10.539Z,99280.41
2023-05-12T14:59:37.304Z,99287.69
2023-05-12T15:02:03.711Z,99288.50
2023-05-12T15:04:30.671Z,99294.19
2023-05-12T15:06:57.867Z,99309.09
2023-05-12T15:09:24.349Z,99304.34
2023-05-12T15:11:51.469Z,99299.38
2023-05-12T15:14:18.124Z,99307.72
2023-05-12T15:16:44.543Z,99298.91
2023-05-12T15:19:11.555Z,99316.97
2023-05-12T15:21:38.090Z,99313.09
2023-05-12T15:24:05.533Z,99310.75
2023-05-12T15:26:34.267Z,99319.41
2023-05-12T15:29:02.159Z,99310.75
2023-05-12T15:31:30.089Z,99306.31
2023-05-12T15:33:57.590Z,99308.78
2023-05-12T15:36:24.132Z,99305.00
2023-05-12T15:38:50.710Z,99306.06
2023-05-12T15:41:17.141Z,99314.22
2023-05-12T15:43:43.963Z,99309.63
2023-05-12T15:46:11.837Z,99317.84
2023-05-12T15:48:39.095Z,99313.22
2023-05-12T15:51:07.033Z,99314.03
2023-05-12T15:53:33.756Z,99313.84
2023-05-12T15:56:01.327Z,99313.34
2023-05-12T15:58:28.496Z,99318.78
2023-05-12T16:00:55.622Z,99310.50
2023-05-12T16:03:23.024Z,99311.44
2023-05-12T16:05:50.058Z,99307.25
2023-05-12T16:08:16.680Z,99313.56
2023-05-12T16:10:43.110Z,99297.38
2023-05-12T16:13:09.656Z,99288.19
2023-05-12T16:15:36.690Z,99287.53
2023-05-12T16:18:03.268Z,99279.38
2023-05-12T16:20:29.854Z,99281.84
2023-05-12T16:22:56.466Z,99291.03
2023-05-12T16:25:23.392Z,99296.41
2023-05-12T16:27:50.434Z,99290.19
2023-05-12T16:30:19.354Z,99292.22
2023-05-12T16:32:47.284Z,99301.28
2023-05-12T16:35:14.047Z,99292.63
2023-05-12T16:37:41.630Z,99302.22
2023-05-12T16:40:09.334Z,99317.81
2023-05-12T16:42:36.331Z,99318.78
2023-05-12T16:45:03.393Z,99320.03
2023-05-12T16:47:29.888Z,99325.66
2023-05-12T16:49:58.162Z,99324.16
2023-05-12T16:52:25.487Z,99330.22
2023-05-12T16:54:53.127Z,99334.22
2023-05-12T16:57:20.115Z,99325.84
2023-05-12T16:59:48.192Z,99321.72
2023-05-12T17:02:15.346Z,99304.81
2023-05-12T17:04:41.897Z,99301.59
2023-05-12T17:07:09.269Z,99302.72
2023-05-12T17:09:35.827Z,99302.72
2023-05-12T17:12:04.702Z,99302.03
2023-05-12T17:14:31.183Z,99310.09
2023-05-12T17:16:58.196Z,99309.50
2023-05-12T17:19:24.989Z,99324.16
2023-05-12T17:21:51.721Z,99342.06
2023-05-12T17:24:18.483Z,99342.81
2023-05-12T17:26:44.975Z,99356.00
2023-05-12T17:29:11.734Z,99362.00
2023-05-12T17:31:38.550Z,99375.41
2023-05-12T17:34:05.799Z,99374.75
2023-05-12T17:36:32.926Z,99380.09
2023-05-12T17:39:00.165Z,99377.28
2023-05-12T17:41:28.964Z,99382.91
2023-05-12T17:43:56.463Z,99382.31
2023-05-12T17:46:23.445Z,99385.94
2023-05-12T17:48:49.957Z,99392.34
2023-05-12T17:51:17.539Z,99398.88
2023-05-12T17:53:43.975Z,99398.88
2023-05-12T17:56:10.795Z,99406.16
2023-05-12T17:58:37.439Z,99406.22
2023-05-12T18:01:03.976Z,99407.06
2023-05-12T18:03:30.624Z,99407.06
2023-05-12T18:05:57.274Z,99418.38
2023-05-12T18:08:23.700Z,99414.69
2023-05-12T18:10:50.546Z,99427.91
2023-05-12T18:13:17.069Z,99417.47
2023-05-12T18:15:43.651Z,99419.28
2023-05-12T18:18:11.056Z,99424.72
2023-05-12T18:20:37.892Z,99427.28
2023-05-12T18:23:04.805Z,99428.38
2023-05-12T18:25:31.682Z,99430.78
2023-05-12T18:27:58.170Z,99438.63
2023-05-12T18:30:25.000Z,99439.78
2023-05-12T18:32:51.442Z,99440.75
2023-05-12T18:35:18.394Z,99440.94
2023-05-12T18:37:44.922Z,99444.91
2023-05-12T18:40:12.613Z,99444.59
2023-05-12T18:42:39.102Z,99449.00
2023-05-12T18:45:06.837Z,99450.22
2023-05-12T18:47:33.573Z,99452.63
2023-05-12T18:50:01.421Z,99460.09
2023-05-12T18:52:27.840Z,99455.84
2023-05-12T18:54:54.284Z,99467.06
2023-05-12T18:57:21.261Z,99465.84
2023-05-12T18:59:47.708Z,99474.84
2023-05-12T19:02:14.151Z,99478.03
2023-05-12T19:04:40.788Z,99496.97
2023-05-12T19:07:09.687Z,99498.16
2023-05-12T19:09:37.262Z,99506.25
2023-05-12T19:12:05.841Z,99503.34
2023-05-12T19:14:32.462Z,99505.00
2023-05-12T19:16:58.831Z,99507.03
2023-05-12T19:19:25.366Z,99515.56
2023-05-12T19:21:52.918Z,99514.25
2023-05-12T19:24:24.295Z,99516.28
2023-05-12T19:26:51.219Z,99513.38
2023-05-12T19:29:17.703Z,99519.59
2023-05-12T19:31:44.199Z,99522.09
2023-05-12T19:34:10.602Z,99522.25
2023-05-12T19:36:37.502Z,99522.91
2023-05-12T19:39:04.107Z,99522.03
2023-05-12T19:41:30.801Z,99519.66
2023-05-12T19:43:57.797Z,99525.88
2023-05-12T19:46:24.515Z,99525.56
2023-05-12T19:48:52.553Z,99529.97
2023-05-12T19:51:19.360Z,99535.53
2023-05-12T19:53:46.238Z,99531.81
2023-05-12T19:56:12.842Z,99533.34
2023-05-12T19:58:39.311Z,99525.38
2023-05-12T20:01:06.123Z,99536.25
2023-05-12T20:03:32.751Z,99534.44
2023-05-12T20:05:59.536Z,99533.56
2023-05-12T20:08:25.949Z,99542.09
2023-05-12T20:10:52.845Z,99556.34
2023-05-12T20:13:19.235Z,99550.41
2023-05-12T20:15:46.022Z,99559.81
2023-05-12T20:18:15.654Z,99557.19
2023-05-12T20:20:43.065Z,99563.78
2023-05-12T20:23:10.172Z,99568.19
2023-05-12T20:25:36.791Z,99562.25
2023-05-12T20:28:03.720Z,99563.41
2023-05-12T20:30:30.662Z,99556.72
2023-05-12T20:32:57.167Z,99560.09
2023-05-12T20:35:23.909Z,99550.16
2023-05-12T20:37:50.825Z,99555.66
2023-05-12T20:40:17.428Z,99544.09
2023-05-12T20:42:46.014Z,99553.47
2023-05-12T20:45:13.407Z,99556.81
2023-05-12T20:47:39.961Z,99559.50
2023-05-12T20:50:08.707Z,99558.66
2023-05-12T20:52:42.404Z,99555.03
2023-05-12T20:55:09.633Z,99560.44
2023-05-12T20:57:37.804Z,99561.59
2023-05-12T21:00:04.784Z,99556.75
2023-05-12T21:02:32.164Z,99566.47
2023-05-12T21:04:58.916Z,99565.22
2023-05-12T21:07:25.300Z,99563.00
2023-05-12T21:09:51.942Z,99569.69
2023-05-12T21:12:18.715Z,99567.47
2023-05-12T21:14:45.479Z,99577.28
2023-05-12T21:17:13.352Z,99581.69
2023-05-12T21:19:40.745Z,99577.00
2023-05-12T21:22:10.285Z,99573.75
2023-05-12T21:24:40.329Z,99574.97
2023-05-12T21:27:08.061Z,99574.44
2023-05-12T21:29:34.745Z,99578.69
2023-05-12T21:32:01.959Z,99578.00
2023-05-12T21:34:28.400Z,99577.28
2023-05-12T21:36:54.994Z,99577.22
2023-05-12T21:39:22.202Z,99582.78
2023-05-12T21:41:48.950Z,99580.53
2023-05-12T21:44:16.135Z,99581.28
2023-05-12T21:46:42.733Z,99579.06
2023-05-12T21:49:09.612Z,99581.06
2023-05-12T21:51:36.022Z,99581.88
2023-05-12T21:54:02.763Z,99585.97
2023-05-12T21:56:29.228Z,99585.03
2023-05-12T21:58:55.907Z,99587.19
2023-05-12T22:01:22.862Z,99588.88
2023-05-12T22:03:50.045Z,99595.09
2023-05-12T22:06:16.954Z,99595.53
2023-05-12T22:08:43.860Z,99593.19
2023-05-12T22:11:11.393Z,99587.38
2023-05-12T22:13:37.927Z,99587.38
2023-05-12T22:16:04.830Z,99588.38
2023-05-12T22:18:31.640Z,99594.75
2023-05-12T22:20:58.598Z,99583.00
2023-05-12T22:23:25.022Z,99592.25
2023-05-12T22:25:51.472Z,99594.81
2023-05-12T22:28:18.495Z,99600.19
2023-05-12T22:30:45.003Z,99604.44
2023-05-12T22:33:12.127Z,99601.06
2023-05-12T22:35:39.639Z,99601.75
2023-05-12T22:38:06.079Z,99606.88
2023-05-12T22:40:34.011Z,99607.59
2023-05-12T22:43:00.473Z,99603.81
2023-05-12T22:45:26.933Z,99614.25
2023-05-12T22:47:53.710Z,99609.75
2023-05-12T22:50:20.865Z,99610.59
2023-05-12T22:52:47.629Z,99605.78
2023-05-12T22:55:14.244Z,99596.47
2023-05-12T22:57:43.450Z,99602.66
2023-05-12T23:00:10.161Z,99605.22
2023-05-12T23:02:36.693Z,99604.38
2023-05-12T23:05:04.267Z,99603.53
2023-05-12T23:07:30.978Z,99597.03
2023-05-12T23:09:58.006Z,99595.19
2023-05-12T23:12:24.433Z,99599.56
2023-05-12T23:14:50.933Z,99598.44
2023-05-12T23:17:17.654Z,99597.59
2023-05-12T23:19:44.521Z,99592.47
2023-05-12T23:22:10.970Z,99588.25
2023-05-12T23:24:38.089Z,99592.66
2023-05-12T23:27:06.245Z,99594.75
2023-05-12T23:29:34.387Z,99597.31
2023-05-12T23:32:01.277Z,99589.09
2023-05-12T23:34:28.276Z,99600.13
2023-05-12T23:36:54.756Z,99596.72
2023-05-12T23:39:21.566Z,99594.63
2023-05-12T23:41:48.092Z,99600.53
2023-05-12T23:44:14.464Z,99600.09
2023-05-12T23:46:41.514Z,99593.31
2023-05-12T23:49:07.976Z,99597.59
2023-05-12T23:51:34.776Z,99596.16
2023-05-12T23:54:01.149Z,99593.47
2023-05-12T23:56:27.968Z,99594.47
2023-05-12T23:58:54.349Z,99587.13
